Time;durP1;ratioP1;P1;durP2;ratioP2;P2;SDS_P1;SDS_P2;PMS_P1;PMS_P2;Temp;Humidity;BMP_temperature;BMP_pressure;BME280_temperature;BME280_humidity;BME280_pressure;Samples;Min_cycle;Max_cycle;Signal;HPM_P1;HPM_P2
2022/09/02 00:01:38;;;;;;;2.97;1.08;;;;;;;16.50;56.93;100303.44;5034576;28;20045;-74
2022/09/02 00:04:12;;;;;;;2.60;1.30;;;;;;;16.46;57.51;100296.59;5033556;28;20049;-73
2022/09/02 00:06:42;;;;;;;2.80;1.10;;;;;;;16.39;57.68;100298.09;5034681;28;20388;-73
2022/09/02 00:09:13;;;;;;;2.08;1.10;;;;;;;16.48;57.10;100297.31;5033068;28;20136;-72
2022/09/02 00:11:42;;;;;;;3.72;1.40;;;;;;;16.56;56.55;100289.44;5034462;28;20042;-73
2022/09/02 00:14:14;;;;;;;2.13;1.20;;;;;;;16.68;55.72;100292.09;5034244;28;20518;-73
2022/09/02 00:16:43;;;;;;;3.20;1.20;;;;;;;16.65;55.70;100289.66;5032966;28;20046;-73
2022/09/02 00:19:13;;;;;;;4.28;1.25;;;;;;;16.55;56.43;100279.66;5034651;28;20041;-73
2022/09/02 00:21:41;;;;;;;5.25;1.50;;;;;;;16.67;55.94;100287.69;5033817;28;20045;-73
2022/09/02 00:24:09;;;;;;;1.75;1.05;;;;;;;16.72;56.06;100285.50;5034426;28;20065;-73
2022/09/02 00:26:38;;;;;;;3.72;1.35;;;;;;;16.75;56.49;100282.53;5033986;28;20476;-74
2022/09/02 00:29:07;;;;;;;3.90;1.42;;;;;;;16.77;56.86;100281.41;5034217;28;20044;-75
2022/09/02 00:31:36;;;;;;;3.38;1.33;;;;;;;16.69;57.96;100283.91;5034090;28;20145;-75
2022/09/02 00:34:06;;;;;;;2.95;1.35;;;;;;;16.57;59.30;100283.06;5033894;28;20124;-75
2022/09/02 00:36:36;;;;;;;2.25;1.20;;;;;;;16.54;59.54;100286.03;5034021;28;20049;-77
2022/09/02 00:39:06;;;;;;;3.10;1.20;;;;;;;16.51;60.90;100294.38;5034134;28;20552;-74
2022/09/02 00:41:35;;;;;;;2.65;1.23;;;;;;;16.45;61.48;100286.81;5033968;28;20049;-74
2022/09/02 00:44:06;;;;;;;3.67;1.45;;;;;;;16.41;61.21;100282.69;5033749;28;20080;-74
2022/09/02 00:46:34;;;;;;;4.00;1.70;;;;;;;16.50;60.49;100284.59;5033840;28;20049;-74
2022/09/02 00:49:08;;;;;;;2.63;1.25;;;;;;;16.48;60.72;100281.16;5033851;28;20103;-74
2022/09/02 00:51:43;;;;;;;2.83;1.30;;;;;;;16.43;60.49;100280.72;5033446;28;20069;-75
2022/09/02 00:54:13;;;;;;;3.80;1.40;;;;;;;16.43;60.07;100288.78;5033854;28;20128;-75
2022/09/02 00:56:45;;;;;;;3.15;1.23;;;;;;;16.51;59.74;100280.91;5033506;28;20041;-75
2022/09/02 00:59:27;;;;;;;3.17;1.20;;;;;;;16.56;58.83;100277.81;5033603;28;20041;-75
2022/09/02 01:01:55;;;;;;;2.53;1.05;;;;;;;16.60;58.83;100277.44;5033642;28;20042;-75
2022/09/02 01:04:24;;;;;;;2.55;1.25;;;;;;;16.57;58.87;100269.59;5033588;28;20439;-75
2022/09/02 01:06:54;;;;;;;2.92;1.20;;;;;;;16.47;59.36;100276.75;5033263;28;20041;-74
2022/09/02 01:09:23;;;;;;;4.65;1.27;;;;;;;16.70;58.30;100268.63;5033403;28;20399;-75
2022/09/02 01:11:53;;;;;;;2.28;1.10;;;;;;;16.72;58.22;100277.41;5033046;28;20099;-75
2022/09/02 01:14:22;;;;;;;4.13;1.60;;;;;;;16.74;57.96;100273.59;5033771;28;20459;-74
2022/09/02 01:16:59;;;;;;;2.70;1.00;;;;;;;16.57;59.25;100266.06;5033051;28;20049;-75
2022/09/02 01:19:32;;;;;;;3.35;1.20;;;;;;;16.58;59.15;100273.16;5032218;28;20060;-75
2022/09/02 01:22:05;;;;;;;3.80;1.10;;;;;;;16.64;58.89;100279.88;5033056;28;20056;-74
2022/09/02 01:24:34;;;;;;;2.60;1.02;;;;;;;16.63;59.14;100278.16;5033500;28;20045;-74
2022/09/02 01:27:03;;;;;;;2.70;1.30;;;;;;;16.56;59.14;100275.97;5032106;28;20450;-74
2022/09/02 01:29:31;;;;;;;3.28;1.20;;;;;;;16.50;59.02;100276.53;5032911;28;20488;-74
2022/09/02 01:32:02;;;;;;;3.15;1.20;;;;;;;16.46;59.30;100272.38;5032853;28;20049;-74
2022/09/02 01:34:30;;;;;;;2.97;1.10;;;;;;;16.40;59.44;100278.25;5033010;28;20057;-74
2022/09/02 01:36:59;;;;;;;3.10;1.48;;;;;;;16.59;56.39;100275.72;5032637;28;20061;-74
2022/09/02 01:39:29;;;;;;;2.92;1.10;;;;;;;16.53;58.22;100265.47;5032948;28;20111;-74
2022/09/02 01:41:57;;;;;;;2.75;1.13;;;;;;;16.59;57.81;100274.88;5032930;28;20095;-74
2022/09/02 01:44:26;;;;;;;1.98;0.90;;;;;;;16.55;57.66;100278.81;5032949;28;20477;-74
2022/09/02 01:46:54;;;;;;;4.50;1.10;;;;;;;16.62;57.92;100271.06;5032967;28;20053;-73
2022/09/02 01:49:27;;;;;;;3.92;1.33;;;;;;;16.55;57.68;100273.44;5033005;28;20068;-70
2022/09/02 01:51:56;;;;;;;3.05;1.25;;;;;;;16.54;57.60;100275.25;5032829;28;20041;-71
2022/09/02 01:54:24;;;;;;;2.63;1.00;;;;;;;16.40;58.48;100264.78;5033116;28;20049;-71
2022/09/02 01:56:54;;;;;;;2.88;1.40;;;;;;;16.42;58.18;100264.69;5032533;28;20045;-72
2022/09/02 01:59:22;;;;;;;3.13;1.08;;;;;;;16.39;58.31;100264.94;5032824;28;20038;-72
2022/09/02 02:01:50;;;;;;;2.45;1.20;;;;;;;16.40;58.51;100256.72;5032802;28;20053;-73
2022/09/02 02:04:18;;;;;;;2.67;1.33;;;;;;;16.36;58.12;100260.66;5033025;28;20052;-73
2022/09/02 02:06:48;;;;;;;2.17;1.35;;;;;;;16.27;58.56;100264.97;5032712;28;20128;-73
2022/09/02 02:09:20;;;;;;;4.25;1.20;;;;;;;16.27;58.95;100261.44;5032747;28;20049;-74
2022/09/02 02:11:50;;;;;;;2.25;1.10;;;;;;;16.23;59.18;100268.06;5032584;28;20037;-74
2022/09/02 02:14:20;;;;;;;2.83;1.27;;;;;;;16.16;59.45;100264.16;5032682;28;20034;-74
2022/09/02 02:16:49;;;;;;;3.55;1.20;;;;;;;16.10;59.80;100256.59;5032383;28;20116;-75
2022/09/02 02:19:17;;;;;;;4.00;1.20;;;;;;;16.15;59.69;100257.09;5032690;28;20037;-74
2022/09/02 02:21:45;;;;;;;2.70;1.17;;;;;;;16.16;59.28;100256.94;5032344;28;20133;-74
2022/09/02 02:24:13;;;;;;;1.98;0.93;;;;;;;16.14;59.07;100258.91;5032674;28;20128;-74
2022/09/02 02:26:42;;;;;;;3.30;1.05;;;;;;;16.06;60.06;100253.31;5032248;28;20049;-75
2022/09/02 02:29:10;;;;;;;1.73;0.90;;;;;;;16.06;59.45;100249.78;5032521;28;20037;-74
2022/09/02 02:31:41;;;;;;;3.72;1.15;;;;;;;16.08;58.91;100254.03;5032716;28;20045;-71
2022/09/02 02:34:09;;;;;;;1.67;1.08;;;;;;;16.10;59.11;100249.38;5032687;28;20042;-73
2022/09/02 02:36:38;;;;;;;2.08;1.08;;;;;;;16.11;58.85;100250.22;5031263;28;20046;-73
2022/09/02 02:39:09;;;;;;;2.95;1.13;;;;;;;16.02;59.09;100252.72;5032536;28;20120;-73
2022/09/02 02:41:40;;;;;;;2.35;1.10;;;;;;;16.07;57.72;100254.16;5036507;28;20045;-73
2022/09/02 02:44:12;;;;;;;3.95;1.20;;;;;;;16.08;58.81;100253.19;5036254;28;20045;-72
2022/09/02 02:46:42;;;;;;;3.75;1.10;;;;;;;16.02;58.37;100252.72;5036092;28;20487;-72
2022/09/02 02:49:10;;;;;;;5.95;1.40;;;;;;;15.99;58.75;100252.97;5036504;28;20434;-72
2022/09/02 02:51:38;;;;;;;3.33;1.10;;;;;;;15.99;58.00;100241.34;5036140;28;20487;-72
2022/09/02 02:54:07;;;;;;;2.08;1.13;;;;;;;16.03;58.07;100248.19;5035883;28;20053;-73
2022/09/02 02:56:35;;;;;;;2.35;1.10;;;;;;;16.05;57.95;100240.00;5036044;28;20103;-72
2022/09/02 02:59:04;;;;;;;2.17;0.95;;;;;;;15.97;58.33;100249.53;5035594;28;20045;-72
2022/09/02 03:01:33;;;;;;;3.50;1.40;;;;;;;15.97;57.69;100249.53;5035888;28;20205;-71
2022/09/02 03:04:03;;;;;;;2.80;1.00;;;;;;;16.04;57.35;100244.53;5035455;28;20045;-71
2022/09/02 03:06:31;;;;;;;2.15;1.10;;;;;;;15.86;57.92;100241.50;5036296;28;20080;-71
2022/09/02 03:09:00;;;;;;;2.58;1.10;;;;;;;16.02;57.00;100246.50;5035527;28;20045;-71
2022/09/02 03:11:28;;;;;;;2.83;1.27;;;;;;;15.93;56.80;100244.56;5035720;28;20045;-73
2022/09/02 03:13:57;;;;;;;2.28;1.10;;;;;;;16.03;56.53;100249.06;5035259;28;20049;-74
2022/09/02 03:16:26;;;;;;;2.55;1.30;;;;;;;15.99;56.17;100235.97;5035891;28;20051;-72
2022/09/02 03:18:55;;;;;;;1.65;1.00;;;;;;;15.89;56.79;100235.03;5035130;28;20042;-73
2022/09/02 03:21:24;;;;;;;4.85;1.40;;;;;;;15.86;56.75;100230.75;5035489;28;20498;-73
2022/09/02 03:23:52;;;;;;;2.00;1.15;;;;;;;15.92;56.45;100232.06;5035121;28;20053;-73
2022/09/02 03:26:23;;;;;;;3.42;1.30;;;;;;;15.86;57.08;100235.28;5035432;28;20133;-73
2022/09/02 03:28:53;;;;;;;1.25;0.80;;;;;;;15.82;56.48;100234.66;5035299;28;20045;-73
2022/09/02 03:31:23;;;;;;;2.33;1.10;;;;;;;15.91;55.66;100243.81;5035197;28;20049;-73
2022/09/02 03:33:52;;;;;;;3.15;0.95;;;;;;;15.89;55.95;100240.41;5034961;28;20045;-73
2022/09/02 03:36:23;;;;;;;2.55;1.20;;;;;;;15.92;55.86;100230.25;5035313;28;20473;-73
2022/09/02 03:38:53;;;;;;;2.58;1.10;;;;;;;15.94;55.84;100230.97;5035048;28;20053;-73
2022/09/02 03:41:22;;;;;;;1.83;0.90;;;;;;;15.91;56.33;100236.59;5035086;28;20038;-73
2022/09/02 03:43:50;;;;;;;2.47;0.88;;;;;;;15.90;55.52;100239.41;5034616;28;20049;-74
2022/09/02 03:46:19;;;;;;;1.90;1.17;;;;;;;15.87;55.62;100235.16;5034915;28;20091;-73
2022/09/02 03:48:50;;;;;;;1.65;0.90;;;;;;;15.82;55.87;100240.03;5035024;28;20045;-73
2022/09/02 03:51:20;;;;;;;3.42;0.98;;;;;;;15.90;55.66;100237.56;5033545;28;20129;-73
2022/09/02 03:53:48;;;;;;;2.40;1.13;;;;;;;15.86;56.03;100237.97;5034559;28;20072;-74
2022/09/02 03:56:19;;;;;;;1.77;0.93;;;;;;;15.77;55.85;100242.25;5034734;28;20120;-74
2022/09/02 03:58:50;;;;;;;5.22;1.27;;;;;;;15.85;55.85;100242.50;5034810;28;20049;-74
2022/09/02 04:01:21;;;;;;;2.15;1.10;;;;;;;15.89;55.57;100249.31;5034924;28;20079;-74
2022/09/02 04:03:50;;;;;;;2.80;1.00;;;;;;;15.79;55.54;100245.69;5033180;28;20049;-74
2022/09/02 04:06:20;;;;;;;4.30;1.23;;;;;;;15.74;56.13;100242.53;5034593;28;20488;-73
2022/09/02 04:08:49;;;;;;;2.13;1.17;;;;;;;15.69;55.99;100244.72;5034250;28;20042;-75
2022/09/02 04:11:21;;;;;;;2.63;1.10;;;;;;;15.68;56.48;100248.41;5033032;28;20049;-74
2022/09/02 04:13:52;;;;;;;3.00;1.40;;;;;;;15.70;56.45;100246.44;5034418;28;20116;-75
2022/09/02 04:16:27;;;;;;;5.85;1.60;;;;;;;15.72;56.39;100237.25;5034796;28;20047;-74
2022/09/02 04:18:57;;;;;;;4.88;1.60;;;;;;;15.72;55.95;100239.94;5034193;28;20476;-74
2022/09/02 04:21:26;;;;;;;3.97;1.38;;;;;;;15.67;56.27;100236.78;5034099;28;20107;-74
2022/09/02 04:23:55;;;;;;;2.63;1.30;;;;;;;15.71;55.80;100237.38;5034187;28;20045;-74
2022/09/02 04:26:25;;;;;;;2.88;1.10;;;;;;;15.77;55.99;100246.78;5034147;28;20064;-74
2022/09/02 04:28:53;;;;;;;3.85;1.02;;;;;;;15.65;56.68;100243.28;5033887;28;20100;-74
2022/09/02 04:31:24;;;;;;;3.10;1.50;;;;;;;15.67;56.66;100252.06;5033967;28;20052;-74
2022/09/02 04:33:53;;;;;;;3.28;1.10;;;;;;;15.74;56.47;100256.81;5033961;28;20042;-74
2022/09/02 04:36:22;;;;;;;3.88;1.10;;;;;;;15.66;56.68;100244.97;5034047;28;20045;-72
2022/09/02 04:38:51;;;;;;;3.97;1.38;;;;;;;15.77;55.84;100247.66;5033813;28;20052;-71
2022/09/02 04:41:23;;;;;;;5.60;1.50;;;;;;;15.82;56.03;100244.56;5032683;28;20053;-70
2022/09/02 04:43:55;;;;;;;2.17;1.08;;;;;;;15.77;55.84;100252.16;5033730;28;20052;-70
2022/09/02 04:46:24;;;;;;;3.33;1.33;;;;;;;15.68;56.48;100254.63;5033293;28;20046;-71
2022/09/02 04:49:02;;;;;;;2.47;1.10;;;;;;;15.87;56.06;100256.66;5033708;28;20045;-70
2022/09/02 04:51:31;;;;;;;2.03;1.02;;;;;;;15.97;55.51;100260.31;5033658;28;20095;-71
2022/09/02 04:54:00;;;;;;;4.35;1.25;;;;;;;15.93;55.68;100258.88;5033418;28;20041;-70
2022/09/02 04:56:31;;;;;;;7.28;1.27;;;;;;;15.98;55.60;100261.16;5033493;28;20045;-70
2022/09/02 04:59:01;;;;;;;6.90;1.30;;;;;;;15.97;56.29;100254.94;5033198;28;20068;-71
2022/09/02 05:01:32;;;;;;;2.63;1.13;;;;;;;16.03;55.61;100259.81;5033619;28;20053;-71
2022/09/02 05:04:01;;;;;;;4.28;1.48;;;;;;;16.12;55.77;100260.03;5032963;28;20064;-71
2022/09/02 05:06:30;;;;;;;3.65;1.17;;;;;;;15.99;56.04;100263.72;5033430;28;20069;-71
2022/09/02 05:09:00;;;;;;;3.45;1.25;;;;;;;16.13;55.82;100265.28;5031983;28;20136;-72
2022/09/02 05:11:32;;;;;;;3.00;0.88;;;;;;;16.19;55.66;100274.66;5033452;28;20064;-73
2022/09/02 05:14:05;;;;;;;7.13;1.20;;;;;;;16.15;55.83;100273.22;5033194;28;20493;-73
2022/09/02 05:16:36;;;;;;;3.15;1.17;;;;;;;16.18;55.33;100272.97;5033470;28;20045;-72
2022/09/02 05:19:08;;;;;;;6.90;1.20;;;;;;;16.18;55.75;100273.81;5033006;28;20473;-70
2022/09/02 05:21:40;;;;;;;3.78;1.40;;;;;;;16.30;55.62;100266.56;5033088;28;20120;-71
2022/09/02 05:24:09;;;;;;;3.88;1.27;;;;;;;16.38;55.00;100272.16;5032841;28;20060;-73
2022/09/02 05:26:37;;;;;;;2.97;1.30;;;;;;;16.41;55.12;100263.84;5033013;28;20559;-75
2022/09/02 05:29:07;;;;;;;4.65;1.30;;;;;;;16.31;55.69;100274.53;5032841;28;20048;-72
2022/09/02 05:31:35;;;;;;;3.05;1.10;;;;;;;16.30;55.75;100263.84;5032861;28;20044;-71
2022/09/02 05:34:04;;;;;;;8.40;1.60;;;;;;;16.53;55.26;100267.31;5032875;28;20092;-71
2022/09/02 05:36:33;;;;;;;2.47;1.10;;;;;;;16.56;55.00;100264.34;5031695;28;20055;-71
2022/09/02 05:39:02;;;;;;;7.43;1.70;;;;;;;16.72;54.53;100266.66;5032793;28;20128;-75
2022/09/02 05:41:31;;;;;;;4.70;1.50;;;;;;;16.62;54.36;100263.00;5031708;28;20459;-75
2022/09/02 05:44:02;;;;;;;3.00;1.17;;;;;;;16.62;54.86;100261.16;5031395;28;20081;-76
2022/09/02 05:46:32;;;;;;;3.10;1.20;;;;;;;16.75;54.18;100260.97;5031643;28;20049;-75
2022/09/02 05:49:07;;;;;;;3.53;1.00;;;;;;;16.77;54.07;100261.69;5031444;28;20045;-73
2022/09/02 05:51:41;;;;;;;2.67;1.20;;;;;;;16.90;54.70;100248.91;5031590;28;20052;-72
2022/09/02 05:54:11;;;;;;;3.70;1.30;;;;;;;17.03;53.20;100252.22;5031395;28;20107;-74
2022/09/02 05:56:42;;;;;;;3.55;1.20;;;;;;;17.05;52.86;100254.78;5031745;28;20037;-75
2022/09/02 05:59:13;;;;;;;4.40;1.20;;;;;;;17.05;53.38;100257.47;5031745;28;20041;-76
2022/09/02 06:01:43;;;;;;;5.72;1.50;;;;;;;17.06;53.61;100248.41;5031629;28;20045;-81
2022/09/02 06:04:12;;;;;;;3.38;1.00;;;;;;;17.30;52.64;100259.75;5031371;28;20045;-81
2022/09/02 06:06:41;;;;;;;3.28;1.10;;;;;;;17.20;52.65;100258.00;5030536;28;20077;-82
2022/09/02 06:09:11;;;;;;;4.53;1.10;;;;;;;17.33;52.57;100256.78;5031378;28;20046;-82
2022/09/02 06:11:43;;;;;;;5.85;1.30;;;;;;;17.57;51.94;100253.75;5033915;28;20488;-79
2022/09/02 06:14:12;;;;;;;3.15;1.13;;;;;;;17.42;51.67;100263.19;5033735;28;20056;-78
2022/09/02 06:16:43;;;;;;;6.80;1.30;;;;;;;17.52;51.86;100266.78;5035683;28;20395;-77
2022/09/02 06:19:11;;;;;;;2.70;1.05;;;;;;;17.57;51.90;100261.00;5035223;28;20463;-74
2022/09/02 06:21:49;;;;;;;2.78;1.20;;;;;;;17.57;51.61;100263.69;5051435;28;20091;-74
2022/09/02 06:24:18;;;;;;;6.43;1.20;;;;;;;17.37;52.52;100260.03;5054792;28;20118;-75
2022/09/02 06:26:46;;;;;;;2.67;0.90;;;;;;;17.35;52.74;100259.31;5055311;28;20060;-74
2022/09/02 06:29:14;;;;;;;3.03;1.30;;;;;;;17.67;51.80;100268.13;5055025;28;20095;-74
2022/09/02 06:31:46;;;;;;;2.65;1.40;;;;;;;17.73;51.61;100262.19;5047926;28;20411;-73
2022/09/02 06:34:15;;;;;;;3.00;1.20;;;;;;;17.62;51.54;100256.88;5033393;28;20071;-74
2022/09/02 06:36:46;;;;;;;2.80;1.08;;;;;;;18.01;50.54;100263.25;5033075;28;20488;-75
2022/09/02 06:39:18;;;;;;;3.22;1.30;;;;;;;17.88;50.92;100272.63;5034633;28;20056;-74
2022/09/02 06:41:47;;;;;;;2.35;0.90;;;;;;;17.92;51.55;100265.94;5035111;28;20132;-72
2022/09/02 06:44:18;;;;;;;3.05;1.08;;;;;;;18.02;50.95;100264.09;5034545;28;20128;-71
2022/09/02 06:46:53;;;;;;;3.65;1.63;;;;;;;17.96;50.18;100275.47;5032829;28;20060;-73
2022/09/02 06:49:22;;;;;;;4.35;1.20;;;;;;;17.95;51.06;100268.34;5034790;28;20051;-73
2022/09/02 06:51:53;;;;;;;1.85;1.00;;;;;;;18.14;50.90;100271.06;5034475;28;20049;-73
2022/09/02 06:54:22;;;;;;;2.83;1.35;;;;;;;18.26;50.20;100269.97;5034804;28;20120;-71
2022/09/02 06:56:51;;;;;;;1.83;1.10;;;;;;;18.22;50.14;100265.81;5035235;28;20048;-70
2022/09/02 06:59:21;;;;;;;2.83;1.20;;;;;;;18.22;50.37;100270.38;5034185;28;20045;-72
2022/09/02 07:01:50;;;;;;;2.85;1.20;;;;;;;18.28;50.40;100269.81;5033519;28;20054;-71
2022/09/02 07:07:08;;;;;;;4.05;1.20;;;;;;;18.51;50.58;100260.44;5034279;28;20041;-73
2022/09/02 07:09:36;;;;;;;2.50;1.10;;;;;;;18.54;50.41;100275.53;5034351;28;20053;-73
2022/09/02 07:12:05;;;;;;;3.50;1.20;;;;;;;18.47;50.41;100274.38;5032753;28;20073;-73
2022/09/02 07:14:37;;;;;;;3.65;1.10;;;;;;;18.57;49.82;100270.69;5034646;28;20037;-73
2022/09/02 07:17:07;;;;;;;7.40;1.35;;;;;;;18.42;50.39;100260.44;5032640;28;20046;-73
2022/09/02 07:19:36;;;;;;;3.35;1.05;;;;;;;18.37;50.12;100268.97;5034519;28;20047;-73
2022/09/02 07:22:06;;;;;;;3.33;1.33;;;;;;;18.51;50.87;100265.84;5033997;28;20447;-72
2022/09/02 07:24:36;;;;;;;3.40;1.20;;;;;;;18.62;49.67;100263.97;5034427;28;20156;-73
2022/09/02 07:27:05;;;;;;;3.13;1.20;;;;;;;18.45;49.88;100263.72;5033896;28;20068;-73
2022/09/02 07:29:34;;;;;;;3.50;1.55;;;;;;;18.64;50.35;100264.72;5034525;28;20055;-73
2022/09/02 07:32:02;;;;;;;2.97;1.23;;;;;;;18.78;49.52;100280.50;5032642;28;20053;-73
2022/09/02 07:34:32;;;;;;;2.80;1.10;;;;;;;18.78;50.19;100272.38;5034159;28;20050;-72
2022/09/02 07:37:00;;;;;;;2.97;1.40;;;;;;;18.73;49.39;100275.53;5032335;28;20412;-73
2022/09/02 07:39:34;;;;;;;4.18;1.30;;;;;;;18.67;50.09;100264.44;5032576;28;20053;-72
2022/09/02 07:42:03;;;;;;;3.05;1.30;;;;;;;18.99;50.61;100258.69;5032377;28;20075;-73
2022/09/02 07:44:35;;;;;;;5.20;1.42;;;;;;;19.08;49.77;100266.78;5034090;28;20042;-73
2022/09/02 07:47:04;;;;;;;4.45;1.60;;;;;;;19.01;50.14;100265.69;5033317;28;20484;-73
2022/09/02 07:49:34;;;;;;;3.35;1.20;;;;;;;19.18;49.54;100266.75;5032163;28;20050;-73
2022/09/02 07:52:26;;;;;;;2.15;1.25;;;;;;;19.00;49.74;100271.22;5032140;28;20049;-72
2022/09/02 07:54:55;;;;;;;2.22;1.30;;;;;;;19.22;49.21;100265.47;5033432;28;20073;-72
2022/09/02 07:57:23;;;;;;;3.20;1.45;;;;;;;19.17;48.98;100265.91;5031960;28;20049;-73
2022/09/02 07:59:51;;;;;;;3.20;1.25;;;;;;;18.94;49.71;100282.63;5032477;28;20403;-73
2022/09/02 08:02:19;;;;;;;3.22;1.58;;;;;;;19.14;49.32;100265.34;5031690;28;20056;-72
2022/09/02 08:04:50;;;;;;;4.30;1.48;;;;;;;19.16;50.32;100260.66;5033780;28;20052;-72
2022/09/02 08:07:22;;;;;;;3.00;1.48;;;;;;;19.21;49.29;100258.38;5033637;28;20093;-73
2022/09/02 08:09:51;;;;;;;;;;;;;;;19.48;48.82;100262.94;5032263;28;20057;-73
2022/09/02 08:12:19;;;;;;;3.50;1.33;;;;;;;19.50;49.52;100263.66;5031693;28;20338;-73
2022/09/02 08:14:49;;;;;;;4.30;1.63;;;;;;;19.74;48.42;100260.44;5033470;28;20057;-73
2022/09/02 08:17:18;;;;;;;4.85;1.23;;;;;;;19.81;48.25;100258.81;5033282;28;20042;-73
2022/09/02 08:19:46;;;;;;;4.13;1.30;;;;;;;19.57;48.73;100262.06;5033001;28;20049;-73
2022/09/02 08:22:15;;;;;;;3.10;1.50;;;;;;;19.68;48.81;100261.00;5032967;28;20050;-73
2022/09/02 08:24:44;;;;;;;6.00;1.60;;;;;;;19.60;48.73;100266.34;5033064;28;20055;-73
2022/09/02 08:27:12;;;;;;;2.38;1.33;;;;;;;19.58;48.90;100257.50;5031347;28;20053;-73
2022/09/02 08:29:40;;;;;;;3.40;1.40;;;;;;;19.70;48.20;100259.03;5031629;28;20500;-73
2022/09/02 08:32:09;;;;;;;7.63;2.30;;;;;;;19.64;48.47;100259.63;5032525;28;20042;-73
2022/09/02 08:34:37;;;;;;;3.50;1.67;;;;;;;19.81;47.92;100250.72;5031243;28;20051;-73
2022/09/02 08:37:06;;;;;;;4.22;1.50;;;;;;;20.02;48.48;100253.13;5030313;28;20084;-73
2022/09/02 08:39:35;;;;;;;6.00;1.50;;;;;;;20.12;48.49;100261.19;5032562;28;20068;-73
2022/09/02 08:42:13;;;;;;;3.15;1.42;;;;;;;19.87;48.26;100263.63;5032689;28;20041;-75
2022/09/02 08:44:41;;;;;;;3.63;1.42;;;;;;;19.92;49.07;100252.34;5032575;28;20065;-73
2022/09/02 08:47:13;;;;;;;2.35;1.30;;;;;;;19.83;48.78;100251.41;5030810;28;20131;-73
2022/09/02 08:49:44;;;;;;;3.50;1.52;;;;;;;19.94;47.96;100248.47;5032554;28;20052;-73
2022/09/02 08:52:21;;;;;;;4.55;1.45;;;;;;;19.88;49.15;100246.41;5030817;28;20411;-73
2022/09/02 08:54:54;;;;;;;2.50;1.40;;;;;;;19.91;49.59;100246.09;5032515;28;20128;-73
2022/09/02 08:57:25;;;;;;;3.72;1.52;;;;;;;20.02;49.42;100253.13;5032534;28;20064;-73
2022/09/02 08:59:57;;;;;;;2.88;1.40;;;;;;;20.12;47.90;100259.34;5032351;28;20054;-73
2022/09/02 09:02:35;;;;;;;3.10;1.55;;;;;;;20.24;49.10;100251.81;5032232;28;20057;-73
2022/09/02 09:05:23;;;;;;;8.10;1.90;;;;;;;20.04;48.49;100255.69;5032714;28;20349;-73
2022/09/02 09:08:04;;;;;;;3.35;1.35;;;;;;;20.28;48.91;100248.66;5032450;28;20045;-73
2022/09/02 09:10:47;;;;;;;4.18;1.60;;;;;;;20.19;48.36;100243.34;5032253;28;20462;-73
2022/09/02 09:13:31;;;;;;;2.83;1.50;;;;;;;20.44;48.48;100239.84;5032080;28;20136;-73
2022/09/02 09:16:08;;;;;;;5.05;1.83;;;;;;;20.14;48.13;100251.03;5032218;28;20045;-73
2022/09/02 09:18:39;;;;;;;3.45;1.58;;;;;;;20.26;48.44;100244.38;5032175;28;20093;-73
2022/09/02 09:21:08;;;;;;;2.88;1.23;;;;;;;20.28;48.17;100247.81;5032067;28;20136;-73
2022/09/02 09:23:39;;;;;;;4.80;1.70;;;;;;;20.31;47.53;100242.09;5031090;28;20057;-73
2022/09/02 09:26:12;;;;;;;4.68;1.48;;;;;;;20.41;48.15;100245.56;5030471;28;20104;-73
2022/09/02 09:28:42;;;;;;;3.95;1.45;;;;;;;20.39;48.27;100241.31;5030703;28;20045;-73
2022/09/02 09:31:13;;;;;;;7.07;1.75;;;;;;;20.49;48.77;100239.41;5030483;28;20151;-73
2022/09/02 09:33:55;;;;;;;3.42;1.55;;;;;;;20.32;48.04;100249.19;5031787;28;20037;-73
2022/09/02 09:36:44;;;;;;;3.38;1.60;;;;;;;20.46;48.22;100246.00;5030452;28;20045;-74
2022/09/02 09:39:18;;;;;;;3.88;1.58;;;;;;;20.47;47.50;100242.28;5031594;28;20045;-74
2022/09/02 09:41:49;;;;;;;3.38;1.58;;;;;;;20.59;47.72;100245.59;5031016;28;20053;-74
2022/09/02 09:44:43;;;;;;;4.50;1.90;;;;;;;20.73;48.04;100242.28;5031575;28;20049;-74
2022/09/02 09:47:18;;;;;;;5.57;1.80;;;;;;;20.58;48.69;100244.72;5031982;28;20107;-74
2022/09/02 09:49:48;;;;;;;3.15;1.70;;;;;;;20.89;47.93;100230.72;5031707;28;20175;-73
2022/09/02 09:52:26;;;;;;;2.85;1.33;;;;;;;21.01;47.21;100237.56;5032000;28;20481;-74
2022/09/02 09:55:18;;;;;;;3.25;1.58;;;;;;;21.03;46.77;100234.69;5032184;28;20088;-74
2022/09/02 09:58:09;;;;;;;5.07;1.70;;;;;;;21.11;46.88;100219.34;5031604;28;20080;-74
2022/09/02 10:00:39;;;;;;;3.80;1.77;;;;;;;20.95;47.83;100230.09;5032005;28;20130;-74
2022/09/02 10:03:08;;;;;;;2.90;1.40;;;;;;;21.21;46.94;100215.66;5030602;28;20115;-73
2022/09/02 10:05:39;;;;;;;4.60;1.92;;;;;;;21.07;47.39;100217.13;5031502;28;20495;-73
2022/09/02 10:08:20;;;;;;;4.05;1.70;;;;;;;21.14;47.02;100210.91;5030374;28;20045;-73
2022/09/02 10:10:59;;;;;;;2.88;1.70;;;;;;;21.24;46.70;100213.50;5030162;28;20054;-73
2022/09/02 10:13:31;;;;;;;4.00;1.73;;;;;;;21.19;46.94;100214.97;5031160;28;20129;-73
2022/09/02 10:16:10;;;;;;;5.63;1.70;;;;;;;21.20;46.82;100214.81;5031599;28;20472;-73
2022/09/02 10:18:46;;;;;;;3.40;1.88;;;;;;;21.22;46.77;100210.06;5031612;28;20399;-73
2022/09/02 10:21:29;;;;;;;4.45;1.73;;;;;;;21.31;47.78;100211.00;5031344;28;20460;-74
2022/09/02 10:24:06;;;;;;;4.35;1.70;;;;;;;21.33;46.92;100220.69;5031735;28;20124;-74
2022/09/02 10:26:40;;;;;;;5.20;1.90;;;;;;;21.40;46.88;100223.59;5031457;28;20120;-74
2022/09/02 10:29:35;;;;;;;4.73;1.90;;;;;;;21.73;46.04;100204.72;5030188;28;20137;-74
2022/09/02 10:32:42;;;;;;;4.53;1.73;;;;;;;21.23;45.70;100208.19;5029993;28;20294;-74
2022/09/02 10:35:16;;;;;;;6.85;2.25;;;;;;;21.69;44.88;100202.31;5014615;28;20147;-74
2022/09/02 10:38:00;;;;;;;4.97;1.80;;;;;;;21.64;44.24;100204.69;5031606;28;20053;-74
2022/09/02 10:40:36;;;;;;;5.25;1.90;;;;;;;21.82;43.04;100217.31;5029740;28;20489;-74
2022/09/02 10:43:06;;;;;;;3.40;1.70;;;;;;;21.52;43.80;100225.00;5031531;28;20068;-74
2022/09/02 10:45:43;;;;;;;4.55;1.90;;;;;;;21.72;43.09;100222.88;5029681;28;20042;-74
2022/09/02 10:48:28;;;;;;;3.38;1.80;;;;;;;21.96;43.01;100219.38;5030820;28;20136;-74
2022/09/02 10:51:04;;;;;;;4.97;2.08;;;;;;;22.02;43.46;100218.72;5029447;28;20380;-74
2022/09/02 10:53:42;;;;;;;5.13;1.90;;;;;;;21.82;43.12;100209.16;5030830;28;20045;-74
2022/09/02 10:56:16;;;;;;;6.55;2.10;;;;;;;22.14;43.36;100211.13;5030019;28;20480;-73
2022/09/02 10:58:51;;;;;;;3.85;1.70;;;;;;;22.18;43.56;100218.75;5031165;28;20141;-74
2022/09/02 11:01:27;;;;;;;4.03;1.90;;;;;;;22.16;43.54;100215.34;5030991;28;20145;-74
2022/09/02 11:04:05;;;;;;;3.92;1.90;;;;;;;22.30;43.91;100207.59;5034561;28;20124;-72
2022/09/02 11:06:37;;;;;;;4.60;2.08;;;;;;;22.40;43.57;100210.97;5034103;28;20041;-74
2022/09/02 11:09:32;;;;;;;4.07;1.80;;;;;;;22.43;42.32;100221.50;5034097;28;20091;-74
2022/09/02 11:12:07;;;;;;;4.72;2.00;;;;;;;22.34;43.41;100204.34;5033216;28;20107;-74
2022/09/02 11:14:40;;;;;;;4.22;1.80;;;;;;;22.64;42.95;100212.84;5032624;28;20049;-74
2022/09/02 11:17:23;;;;;;;4.10;1.70;;;;;;;22.51;42.96;100205.19;5034541;28;20045;-74
2022/09/02 11:19:58;;;;;;;3.80;1.95;;;;;;;22.70;42.70;100207.56;5034405;28;20418;-74
2022/09/02 11:22:34;;;;;;;4.10;2.13;;;;;;;22.72;42.63;100210.97;5034253;28;20042;-74
2022/09/02 11:25:08;;;;;;;4.70;1.83;;;;;;;22.91;42.78;100198.06;5034403;28;20045;-74
2022/09/02 11:27:41;;;;;;;4.80;2.20;;;;;;;22.83;43.15;100191.56;5033992;28;20041;-74
2022/09/02 11:30:15;;;;;;;3.92;1.85;;;;;;;21.90;43.38;100198.31;5032587;28;20124;-74
2022/09/02 11:32:53;;;;;;;3.88;1.90;;;;;;;21.99;43.20;100192.72;5034067;28;20048;-74
2022/09/02 11:35:26;;;;;;;3.60;1.83;;;;;;;22.09;43.30;100197.19;5032565;28;20438;-74
2022/09/02 11:38:00;;;;;;;4.50;2.13;;;;;;;22.48;43.17;100191.94;5034254;28;20466;-74
2022/09/02 11:40:36;;;;;;;4.35;1.83;;;;;;;22.76;42.61;100185.09;5033682;28;20057;-74
2022/09/02 11:43:30;;;;;;;6.55;1.60;;;;;;;22.57;42.39;100186.31;5032453;28;20049;-73
2022/09/02 11:46:18;;;;;;;4.63;2.00;;;;;;;22.24;42.16;100188.22;5033930;28;20483;-73
2022/09/02 11:49:05;;;;;;;5.05;1.92;;;;;;;21.99;43.26;100202.72;5034183;28;20091;-73